sensor_id;sensor_type;location;lat;lon;timestamp;temperature;humidity
10304;DHT22;5197;48.152;8.590;2023-07-31T00:02:18;15.10;1.00
10304;DHT22;5197;48.152;8.590;2023-07-31T00:04:45;14.40;1.00
10304;DHT22;5197;48.152;8.590;2023-07-31T00:07:12;15.80;1.60
10304;DHT22;5197;48.152;8.590;2023-07-31T00:09:39;14.10;1.00
10304;DHT22;5197;48.152;8.590;2023-07-31T00:12:06;14.00;1.00
10304;DHT22;5197;48.152;8.590;2023-07-31T00:14:33;13.90;1.00
10304;DHT22;5197;48.152;8.590;2023-07-31T00:16:59;13.80;1.60
10304;DHT22;5197;48.152;8.590;2023-07-31T00:19:26;15.30;3.40
10304;DHT22;5197;48.152;8.590;2023-07-31T00:21:53;13.50;3.00
10304;DHT22;5197;48.152;8.590;2023-07-31T00:24:20;13.30;3.50
10304;DHT22;5197;48.152;8.590;2023-07-31T00:26:47;13.30;4.00
10304;DHT22;5197;48.152;8.590;2023-07-31T00:29:14;13.30;4.20
10304;DHT22;5197;48.152;8.590;2023-07-31T00:31:41;14.70;5.20
10304;DHT22;5197;48.152;8.590;2023-07-31T00:34:07;13.60;4.40
10304;DHT22;5197;48.152;8.590;2023-07-31T00:36:34;13.60;4.40
10304;DHT22;5197;48.152;8.590;2023-07-31T00:39:01;13.60;4.30
10304;DHT22;5197;48.152;8.590;2023-07-31T00:41:28;13.80;4.20
10304;DHT22;5197;48.152;8.590;2023-07-31T00:43:55;13.80;4.00
10304;DHT22;5197;48.152;8.590;2023-07-31T00:46:22;14.90;4.80
10304;DHT22;5197;48.152;8.590;2023-07-31T00:48:49;13.80;3.80
10304;DHT22;5197;48.152;8.590;2023-07-31T00:51:16;14.40;4.00
10304;DHT22;5197;48.152;8.590;2023-07-31T00:53:43;13.90;3.70
10304;DHT22;5197;48.152;8.590;2023-07-31T00:56:11;15.30;4.50
10304;DHT22;5197;48.152;8.590;2023-07-31T00:58:37;13.80;3.40
10304;DHT22;5197;48.152;8.590;2023-07-31T01:01:04;13.90;3.40
10304;DHT22;5197;48.152;8.590;2023-07-31T01:03:31;14.10;3.90
10304;DHT22;5197;48.152;8.590;2023-07-31T01:09:01;13.90;3.30
10304;DHT22;5197;48.152;8.590;2023-07-31T01:11:31;13.90;3.30
10304;DHT22;5197;48.152;8.590;2023-07-31T01:14:39;13.80;3.40
10304;DHT22;5197;48.152;8.590;2023-07-31T01:17:06;13.70;3.80
10304;DHT22;5197;48.152;8.590;2023-07-31T01:19:33;13.60;4.00
10304;DHT22;5197;48.152;8.590;2023-07-31T01:24:44;13.40;4.50
10304;DHT22;5197;48.152;8.590;2023-07-31T01:27:24;13.30;5.10
10304;DHT22;5197;48.152;8.590;2023-07-31T01:30:11;13.20;5.60
10304;DHT22;5197;48.152;8.590;2023-07-31T01:32:43;13.20;5.70
10304;DHT22;5197;48.152;8.590;2023-07-31T01:35:13;13.20;6.10
10304;DHT22;5197;48.152;8.590;2023-07-31T01:37:40;13.20;6.10
10304;DHT22;5197;48.152;8.590;2023-07-31T01:40:07;13.20;6.10
10304;DHT22;5197;48.152;8.590;2023-07-31T01:42:34;13.30;6.20
10304;DHT22;5197;48.152;8.590;2023-07-31T01:45:01;13.30;6.30
10304;DHT22;5197;48.152;8.590;2023-07-31T01:47:27;13.20;6.30
10304;DHT22;5197;48.152;8.590;2023-07-31T01:49:54;13.10;6.30
10304;DHT22;5197;48.152;8.590;2023-07-31T01:52:21;13.10;6.40
10304;DHT22;5197;48.152;8.590;2023-07-31T01:54:48;13.20;6.70
10304;DHT22;5197;48.152;8.590;2023-07-31T01:57:15;13.10;6.60
10304;DHT22;5197;48.152;8.590;2023-07-31T01:59:42;13.10;6.80
10304;DHT22;5197;48.152;8.590;2023-07-31T02:02:09;13.10;6.80
10304;DHT22;5197;48.152;8.590;2023-07-31T02:04:36;13.10;6.60
10304;DHT22;5197;48.152;8.590;2023-07-31T02:07:02;13.10;6.70
10304;DHT22;5197;48.152;8.590;2023-07-31T02:09:29;13.20;6.70
10304;DHT22;5197;48.152;8.590;2023-07-31T02:11:56;13.20;6.90
10304;DHT22;5197;48.152;8.590;2023-07-31T02:14:23;13.10;7.00
10304;DHT22;5197;48.152;8.590;2023-07-31T02:16:50;13.20;7.00
10304;DHT22;5197;48.152;8.590;2023-07-31T02:19:17;13.20;7.00
10304;DHT22;5197;48.152;8.590;2023-07-31T02:21:44;13.10;7.00
10304;DHT22;5197;48.152;8.590;2023-07-31T02:24:11;13.20;7.10
10304;DHT22;5197;48.152;8.590;2023-07-31T02:26:38;13.20;7.10
10304;DHT22;5197;48.152;8.590;2023-07-31T02:29:05;13.20;7.20
10304;DHT22;5197;48.152;8.590;2023-07-31T02:31:32;13.10;7.10
10304;DHT22;5197;48.152;8.590;2023-07-31T02:33:58;13.20;7.20
10304;DHT22;5197;48.152;8.590;2023-07-31T02:36:25;13.20;7.20
10304;DHT22;5197;48.152;8.590;2023-07-31T02:38:52;13.10;7.20
10304;DHT22;5197;48.152;8.590;2023-07-31T02:41:18;13.10;7.20
10304;DHT22;5197;48.152;8.590;2023-07-31T02:43:45;13.10;7.20
10304;DHT22;5197;48.152;8.590;2023-07-31T02:46:12;13.10;7.30
10304;DHT22;5197;48.152;8.590;2023-07-31T02:48:39;13.10;7.20
10304;DHT22;5197;48.152;8.590;2023-07-31T02:51:06;13.10;7.30
10304;DHT22;5197;48.152;8.590;2023-07-31T02:53:33;13.00;7.30
10304;DHT22;5197;48.152;8.590;2023-07-31T02:56:00;13.10;7.50
10304;DHT22;5197;48.152;8.590;2023-07-31T02:58:27;13.10;7.50
10304;DHT22;5197;48.152;8.590;2023-07-31T03:00:53;12.90;7.50
10304;DHT22;5197;48.152;8.590;2023-07-31T03:03:20;13.00;7.70
10304;DHT22;5197;48.152;8.590;2023-07-31T03:05:47;12.90;7.70
10304;DHT22;5197;48.152;8.590;2023-07-31T03:08:14;12.90;7.80
10304;DHT22;5197;48.152;8.590;2023-07-31T03:10:41;12.90;8.00
10304;DHT22;5197;48.152;8.590;2023-07-31T03:13:08;12.90;8.10
10304;DHT22;5197;48.152;8.590;2023-07-31T03:15:34;12.90;8.20
10304;DHT22;5197;48.152;8.590;2023-07-31T03:18:01;12.80;8.30
10304;DHT22;5197;48.152;8.590;2023-07-31T03:20:28;12.80;8.40
10304;DHT22;5197;48.152;8.590;2023-07-31T03:22:55;12.80;8.60
10304;DHT22;5197;48.152;8.590;2023-07-31T03:25:22;12.80;8.70
10304;DHT22;5197;48.152;8.590;2023-07-31T03:27:48;12.80;8.70
10304;DHT22;5197;48.152;8.590;2023-07-31T03:30:15;12.70;8.70
10304;DHT22;5197;48.152;8.590;2023-07-31T03:32:42;12.70;8.80
10304;DHT22;5197;48.152;8.590;2023-07-31T03:35:09;12.70;9.10
10304;DHT22;5197;48.152;8.590;2023-07-31T03:37:36;12.60;9.00
10304;DHT22;5197;48.152;8.590;2023-07-31T03:40:03;12.70;9.40
10304;DHT22;5197;48.152;8.590;2023-07-31T03:42:31;12.70;9.40
10304;DHT22;5197;48.152;8.590;2023-07-31T03:44:57;12.60;9.60
10304;DHT22;5197;48.152;8.590;2023-07-31T03:47:24;12.60;10.60
10304;DHT22;5197;48.152;8.590;2023-07-31T03:49:51;12.70;9.70
10304;DHT22;5197;48.152;8.590;2023-07-31T03:52:18;12.60;9.70
10304;DHT22;5197;48.152;8.590;2023-07-31T03:54:45;12.60;9.80
10304;DHT22;5197;48.152;8.590;2023-07-31T03:57:12;12.50;9.90
10304;DHT22;5197;48.152;8.590;2023-07-31T03:59:39;12.60;10.10
10304;DHT22;5197;48.152;8.590;2023-07-31T04:02:06;12.50;10.20
10304;DHT22;5197;48.152;8.590;2023-07-31T04:04:32;12.50;10.20
10304;DHT22;5197;48.152;8.590;2023-07-31T04:07:02;12.50;10.30
10304;DHT22;5197;48.152;8.590;2023-07-31T04:09:28;12.50;10.40
10304;DHT22;5197;48.152;8.590;2023-07-31T04:11:55;12.50;10.70
10304;DHT22;5197;48.152;8.590;2023-07-31T04:14:23;12.40;11.00
10304;DHT22;5197;48.152;8.590;2023-07-31T04:16:50;12.50;11.00
10304;DHT22;5197;48.152;8.590;2023-07-31T04:19:17;12.50;11.00
10304;DHT22;5197;48.152;8.590;2023-07-31T04:21:44;12.50;11.00
10304;DHT22;5197;48.152;8.590;2023-07-31T04:24:11;12.40;11.20
10304;DHT22;5197;48.152;8.590;2023-07-31T04:26:37;12.50;11.10
10304;DHT22;5197;48.152;8.590;2023-07-31T04:29:05;12.40;11.20
10304;DHT22;5197;48.152;8.590;2023-07-31T04:31:32;12.50;11.30
10304;DHT22;5197;48.152;8.590;2023-07-31T04:33:59;12.60;11.20
10304;DHT22;5197;48.152;8.590;2023-07-31T04:36:26;12.50;11.10
10304;DHT22;5197;48.152;8.590;2023-07-31T04:38:53;12.60;11.30
10304;DHT22;5197;48.152;8.590;2023-07-31T04:41:20;12.60;11.20
10304;DHT22;5197;48.152;8.590;2023-07-31T04:43:46;12.70;11.30
10304;DHT22;5197;48.152;8.590;2023-07-31T04:46:13;12.60;11.40
10304;DHT22;5197;48.152;8.590;2023-07-31T04:48:40;12.80;11.40
10304;DHT22;5197;48.152;8.590;2023-07-31T04:51:07;12.70;11.30
10304;DHT22;5197;48.152;8.590;2023-07-31T04:53:34;12.70;11.20
10304;DHT22;5197;48.152;8.590;2023-07-31T04:56:01;12.80;11.20
10304;DHT22;5197;48.152;8.590;2023-07-31T04:58:27;14.10;12.10
10304;DHT22;5197;48.152;8.590;2023-07-31T05:00:54;14.80;12.60
10304;DHT22;5197;48.152;8.590;2023-07-31T05:03:21;14.80;12.70
10304;DHT22;5197;48.152;8.590;2023-07-31T05:05:49;13.00;11.30
10304;DHT22;5197;48.152;8.590;2023-07-31T05:08:16;13.00;10.90
10304;DHT22;5197;48.152;8.590;2023-07-31T05:10:44;13.10;10.90
10304;DHT22;5197;48.152;8.590;2023-07-31T05:13:11;13.10;10.70
10304;DHT22;5197;48.152;8.590;2023-07-31T05:15:38;13.10;10.50
10304;DHT22;5197;48.152;8.590;2023-07-31T05:18:05;13.30;10.40
10304;DHT22;5197;48.152;8.590;2023-07-31T05:20:32;13.20;10.30
10304;DHT22;5197;48.152;8.590;2023-07-31T05:22:59;13.20;10.10
10304;DHT22;5197;48.152;8.590;2023-07-31T05:25:25;13.30;10.00
10304;DHT22;5197;48.152;8.590;2023-07-31T05:27:52;13.30;9.90
10304;DHT22;5197;48.152;8.590;2023-07-31T05:30:19;13.40;9.80
10304;DHT22;5197;48.152;8.590;2023-07-31T05:32:47;13.40;9.60
10304;DHT22;5197;48.152;8.590;2023-07-31T05:35:14;16.00;11.40
10304;DHT22;5197;48.152;8.590;2023-07-31T05:37:41;13.50;9.60
10304;DHT22;5197;48.152;8.590;2023-07-31T05:40:08;13.50;9.40
10304;DHT22;5197;48.152;8.590;2023-07-31T05:42:35;13.60;9.40
10304;DHT22;5197;48.152;8.590;2023-07-31T05:45:08;13.60;9.40
10304;DHT22;5197;48.152;8.590;2023-07-31T05:47:35;13.60;9.20
10304;DHT22;5197;48.152;8.590;2023-07-31T05:50:02;13.70;9.20
10304;DHT22;5197;48.152;8.590;2023-07-31T05:52:29;13.70;9.10
10304;DHT22;5197;48.152;8.590;2023-07-31T05:54:56;13.70;9.10
10304;DHT22;5197;48.152;8.590;2023-07-31T05:57:23;13.70;8.90
10304;DHT22;5197;48.152;8.590;2023-07-31T05:59:50;13.80;8.80
10304;DHT22;5197;48.152;8.590;2023-07-31T06:02:17;13.80;8.60
10304;DHT22;5197;48.152;8.590;2023-07-31T06:04:44;14.10;8.50
10304;DHT22;5197;48.152;8.590;2023-07-31T06:07:11;14.00;8.20
10304;DHT22;5197;48.152;8.590;2023-07-31T06:09:38;14.00;7.80
10304;DHT22;5197;48.152;8.590;2023-07-31T06:12:05;14.10;7.50
10304;DHT22;5197;48.152;8.590;2023-07-31T06:14:32;14.10;7.50
10304;DHT22;5197;48.152;8.590;2023-07-31T06:16:58;14.20;7.40
10304;DHT22;5197;48.152;8.590;2023-07-31T06:19:25;14.10;6.70
10304;DHT22;5197;48.152;8.590;2023-07-31T06:21:52;14.30;6.60
10304;DHT22;5197;48.152;8.590;2023-07-31T06:24:19;14.20;6.20
10304;DHT22;5197;48.152;8.590;2023-07-31T06:26:47;14.20;6.00
10304;DHT22;5197;48.152;8.590;2023-07-31T06:29:14;14.30;5.60
10304;DHT22;5197;48.152;8.590;2023-07-31T06:31:41;14.40;5.40
10304;DHT22;5197;48.152;8.590;2023-07-31T06:34:08;15.60;6.00
10304;DHT22;5197;48.152;8.590;2023-07-31T06:36:35;16.60;6.40
10304;DHT22;5197;48.152;8.590;2023-07-31T06:39:02;14.60;4.70
10304;DHT22;5197;48.152;8.590;2023-07-31T06:41:28;14.50;4.50
10304;DHT22;5197;48.152;8.590;2023-07-31T06:43:55;16.10;5.50
10304;DHT22;5197;48.152;8.590;2023-07-31T06:46:22;14.80;4.30
10304;DHT22;5197;48.152;8.590;2023-07-31T06:48:50;14.90;4.10
10304;DHT22;5197;48.152;8.590;2023-07-31T06:51:17;17.50;5.50
10304;DHT22;5197;48.152;8.590;2023-07-31T06:53:44;15.20;3.70
10304;DHT22;5197;48.152;8.590;2023-07-31T06:56:11;16.40;4.50
10304;DHT22;5197;48.152;8.590;2023-07-31T06:58:39;15.40;4.20
10304;DHT22;5197;48.152;8.590;2023-07-31T07:01:06;15.90;4.00
10304;DHT22;5197;48.152;8.590;2023-07-31T07:03:33;17.70;3.80
10304;DHT22;5197;48.152;8.590;2023-07-31T07:06:00;16.30;1.80
10304;DHT22;5197;48.152;8.590;2023-07-31T07:08:27;16.30;1.80
10304;DHT22;5197;48.152;8.590;2023-07-31T07:10:54;16.90;2.20
10304;DHT22;5197;48.152;8.590;2023-07-31T07:13:22;17.30;1.80
10304;DHT22;5197;48.152;8.590;2023-07-31T07:15:49;17.30;1.00
10304;DHT22;5197;48.152;8.590;2023-07-31T07:18:16;17.50;1.00
10304;DHT22;5197;48.152;8.590;2023-07-31T07:20:51;18.10;1.00
10304;DHT22;5197;48.152;8.590;2023-07-31T07:23:18;16.70;1.00
10304;DHT22;5197;48.152;8.590;2023-07-31T07:25:46;16.70;1.00
10304;DHT22;5197;48.152;8.590;2023-07-31T07:28:13;16.70;1.00
10304;DHT22;5197;48.152;8.590;2023-07-31T07:30:40;17.70;1.00
10304;DHT22;5197;48.152;8.590;2023-07-31T07:33:07;16.90;1.00
10304;DHT22;5197;48.152;8.590;2023-07-31T07:35:35;17.00;1.00
10304;DHT22;5197;48.152;8.590;2023-07-31T07:38:03;17.40;1.00
10304;DHT22;5197;48.152;8.590;2023-07-31T07:40:30;17.80;1.00
10304;DHT22;5197;48.152;8.590;2023-07-31T07:42:56;17.80;1.00
10304;DHT22;5197;48.152;8.590;2023-07-31T07:45:23;17.90;1.00
10304;DHT22;5197;48.152;8.590;2023-07-31T07:47:50;17.80;1.00
10304;DHT22;5197;48.152;8.590;2023-07-31T07:50:17;18.60;1.00
10304;DHT22;5197;48.152;8.590;2023-07-31T07:52:44;17.40;1.00
10304;DHT22;5197;48.152;8.590;2023-07-31T07:55:11;18.50;1.00
10304;DHT22;5197;48.152;8.590;2023-07-31T07:57:38;18.20;1.00
10304;DHT22;5197;48.152;8.590;2023-07-31T08:00:06;18.60;1.00
10304;DHT22;5197;48.152;8.590;2023-07-31T08:02:33;18.00;1.00
10304;DHT22;5197;48.152;8.590;2023-07-31T08:05:00;18.80;1.00
10304;DHT22;5197;48.152;8.590;2023-07-31T08:07:26;19.20;1.00
10304;DHT22;5197;48.152;8.590;2023-07-31T08:09:53;19.60;1.00
10304;DHT22;5197;48.152;8.590;2023-07-31T08:12:20;18.90;1.00
10304;DHT22;5197;48.152;8.590;2023-07-31T08:14:47;19.10;1.00
10304;DHT22;5197;48.152;8.590;2023-07-31T08:17:14;19.30;1.00
10304;DHT22;5197;48.152;8.590;2023-07-31T08:19:40;20.20;1.00
10304;DHT22;5197;48.152;8.590;2023-07-31T08:22:07;19.70;1.00
10304;DHT22;5197;48.152;8.590;2023-07-31T08:24:34;19.40;1.00
10304;DHT22;5197;48.152;8.590;2023-07-31T08:27:01;19.80;1.00
10304;DHT22;5197;48.152;8.590;2023-07-31T08:29:28;19.60;1.00
10304;DHT22;5197;48.152;8.590;2023-07-31T08:31:55;19.60;1.00
10304;DHT22;5197;48.152;8.590;2023-07-31T08:34:21;19.70;1.00
10304;DHT22;5197;48.152;8.590;2023-07-31T08:36:48;20.00;1.00
10304;DHT22;5197;48.152;8.590;2023-07-31T08:39:15;20.10;1.00
10304;DHT22;5197;48.152;8.590;2023-07-31T08:41:42;20.10;1.00
10304;DHT22;5197;48.152;8.590;2023-07-31T08:44:10;19.60;1.00
10304;DHT22;5197;48.152;8.590;2023-07-31T08:46:38;19.70;1.00
10304;DHT22;5197;48.152;8.590;2023-07-31T08:49:07;19.80;1.00
10304;DHT22;5197;48.152;8.590;2023-07-31T08:51:35;20.10;1.00
10304;DHT22;5197;48.152;8.590;2023-07-31T08:54:02;20.50;1.00
10304;DHT22;5197;48.152;8.590;2023-07-31T08:56:32;20.10;1.00
10304;DHT22;5197;48.152;8.590;2023-07-31T08:59:02;20.40;1.00
10304;DHT22;5197;48.152;8.590;2023-07-31T09:01:36;20.20;1.00
10304;DHT22;5197;48.152;8.590;2023-07-31T09:04:09;20.70;1.00
10304;DHT22;5197;48.152;8.590;2023-07-31T09:06:38;20.80;1.00
10304;DHT22;5197;48.152;8.590;2023-07-31T09:09:06;20.40;1.00
10304;DHT22;5197;48.152;8.590;2023-07-31T09:11:33;20.20;1.00
10304;DHT22;5197;48.152;8.590;2023-07-31T09:14:00;20.00;1.00
10304;DHT22;5197;48.152;8.590;2023-07-31T09:16:33;20.00;1.00
10304;DHT22;5197;48.152;8.590;2023-07-31T09:18:59;20.00;1.00
10304;DHT22;5197;48.152;8.590;2023-07-31T09:21:28;20.60;1.00
10304;DHT22;5197;48.152;8.590;2023-07-31T09:23:55;20.60;1.00
10304;DHT22;5197;48.152;8.590;2023-07-31T09:26:33;20.60;1.00
10304;DHT22;5197;48.152;8.590;2023-07-31T09:29:00;20.60;1.00
10304;DHT22;5197;48.152;8.590;2023-07-31T09:31:40;20.50;1.00
10304;DHT22;5197;48.152;8.590;2023-07-31T09:34:08;20.60;1.00
10304;DHT22;5197;48.152;8.590;2023-07-31T09:36:49;20.70;1.00
10304;DHT22;5197;48.152;8.590;2023-07-31T09:39:17;20.80;1.00
10304;DHT22;5197;48.152;8.590;2023-07-31T09:41:48;20.90;1.00
10304;DHT22;5197;48.152;8.590;2023-07-31T09:44:19;21.00;1.00
10304;DHT22;5197;48.152;8.590;2023-07-31T09:46:46;20.90;1.00
10304;DHT22;5197;48.152;8.590;2023-07-31T09:49:14;21.30;1.00
10304;DHT22;5197;48.152;8.590;2023-07-31T09:51:42;21.10;1.00
10304;DHT22;5197;48.152;8.590;2023-07-31T09:56:45;21.40;1.00
10304;DHT22;5197;48.152;8.590;2023-07-31T09:59:15;20.90;1.00
10304;DHT22;5197;48.152;8.590;2023-07-31T10:01:44;20.90;1.00
10304;DHT22;5197;48.152;8.590;2023-07-31T10:04:13;21.10;1.00
10304;DHT22;5197;48.152;8.590;2023-07-31T10:06:42;21.40;1.00
10304;DHT22;5197;48.152;8.590;2023-07-31T10:09:11;21.60;1.00
10304;DHT22;5197;48.152;8.590;2023-07-31T10:11:46;21.80;1.00
10304;DHT22;5197;48.152;8.590;2023-07-31T10:14:20;21.50;1.00
10304;DHT22;5197;48.152;8.590;2023-07-31T10:16:48;22.00;1.00
10304;DHT22;5197;48.152;8.590;2023-07-31T10:19:17;22.00;1.00
10304;DHT22;5197;48.152;8.590;2023-07-31T10:21:45;21.80;1.00
10304;DHT22;5197;48.152;8.590;2023-07-31T10:24:14;21.80;1.00
10304;DHT22;5197;48.152;8.590;2023-07-31T10:26:45;22.50;1.00
10304;DHT22;5197;48.152;8.590;2023-07-31T10:29:15;21.70;1.00
10304;DHT22;5197;48.152;8.590;2023-07-31T10:31:42;21.80;1.00
10304;DHT22;5197;48.152;8.590;2023-07-31T10:34:10;21.50;1.00
10304;DHT22;5197;48.152;8.590;2023-07-31T10:36:37;21.50;1.00
10304;DHT22;5197;48.152;8.590;2023-07-31T10:39:04;21.60;1.00
10304;DHT22;5197;48.152;8.590;2023-07-31T10:41:51;21.70;1.00
10304;DHT22;5197;48.152;8.590;2023-07-31T10:44:18;21.90;1.00
10304;DHT22;5197;48.152;8.590;2023-07-31T10:46:47;22.00;1.00
10304;DHT22;5197;48.152;8.590;2023-07-31T10:49:21;22.00;1.00
10304;DHT22;5197;48.152;8.590;2023-07-31T10:51:48;21.80;1.00
10304;DHT22;5197;48.152;8.590;2023-07-31T10:54:16;21.90;1.00
10304;DHT22;5197;48.152;8.590;2023-07-31T10:56:46;22.00;1.00
10304;DHT22;5197;48.152;8.590;2023-07-31T10:59:13;22.00;1.00
10304;DHT22;5197;48.152;8.590;2023-07-31T11:01:54;22.00;1.00
10304;DHT22;5197;48.152;8.590;2023-07-31T11:04:25;22.20;1.00
10304;DHT22;5197;48.152;8.590;2023-07-31T11:06:59;22.30;1.00
10304;DHT22;5197;48.152;8.590;2023-07-31T11:09:30;22.50;1.00
10304;DHT22;5197;48.152;8.590;2023-07-31T11:11:59;22.70;1.00
10304;DHT22;5197;48.152;8.590;2023-07-31T11:14:26;22.30;1.00
10304;DHT22;5197;48.152;8.590;2023-07-31T11:16:53;22.60;1.00
10304;DHT22;5197;48.152;8.590;2023-07-31T11:19:26;22.70;1.00
10304;DHT22;5197;48.152;8.590;2023-07-31T11:21:53;22.70;1.00
10304;DHT22;5197;48.152;8.590;2023-07-31T11:24:20;22.50;1.00
10304;DHT22;5197;48.152;8.590;2023-07-31T11:26:51;22.50;1.00
10304;DHT22;5197;48.152;8.590;2023-07-31T11:29:19;22.40;1.00
10304;DHT22;5197;48.152;8.590;2023-07-31T11:31:47;22.50;1.00
10304;DHT22;5197;48.152;8.590;2023-07-31T11:34:15;22.30;1.00
10304;DHT22;5197;48.152;8.590;2023-07-31T11:36:55;22.40;1.00
10304;DHT22;5197;48.152;8.590;2023-07-31T11:39:22;22.30;1.00
10304;DHT22;5197;48.152;8.590;2023-07-31T11:41:49;22.50;1.00
10304;DHT22;5197;48.152;8.590;2023-07-31T11:44:16;22.70;1.00
10304;DHT22;5197;48.152;8.590;2023-07-31T11:46:56;22.70;1.00
10304;DHT22;5197;48.152;8.590;2023-07-31T11:49:23;22.90;1.00
10304;DHT22;5197;48.152;8.590;2023-07-31T11:51:50;23.20;1.00
10304;DHT22;5197;48.152;8.590;2023-07-31T11:54:17;23.40;1.00
10304;DHT22;5197;48.152;8.590;2023-07-31T11:56:45;23.70;1.00
10304;DHT22;5197;48.152;8.590;2023-07-31T11:59:12;23.60;1.00
10304;DHT22;5197;48.152;8.590;2023-07-31T12:01:39;24.20;1.00
10304;DHT22;5197;48.152;8.590;2023-07-31T12:04:07;24.30;1.00
10304;DHT22;5197;48.152;8.590;2023-07-31T12:06:35;24.10;1.00
10304;DHT22;5197;48.152;8.590;2023-07-31T12:09:06;24.30;1.00
10304;DHT22;5197;48.152;8.590;2023-07-31T12:11:46;24.50;1.00
10304;DHT22;5197;48.152;8.590;2023-07-31T12:14:27;24.60;1.00
10304;DHT22;5197;48.152;8.590;2023-07-31T12:16:57;24.40;1.00
10304;DHT22;5197;48.152;8.590;2023-07-31T12:19:27;24.30;1.00
10304;DHT22;5197;48.152;8.590;2023-07-31T12:21:56;24.10;1.00
10304;DHT22;5197;48.152;8.590;2023-07-31T12:24:26;23.90;1.00
10304;DHT22;5197;48.152;8.590;2023-07-31T12:26:53;23.80;1.00
10304;DHT22;5197;48.152;8.590;2023-07-31T12:29:21;23.70;1.00
10304;DHT22;5197;48.152;8.590;2023-07-31T12:31:48;23.70;1.00
10304;DHT22;5197;48.152;8.590;2023-07-31T12:34:19;23.70;1.00
10304;DHT22;5197;48.152;8.590;2023-07-31T12:36:47;24.00;1.00
10304;DHT22;5197;48.152;8.590;2023-07-31T12:39:17;24.10;1.00
10304;DHT22;5197;48.152;8.590;2023-07-31T12:41:44;23.60;1.00
10304;DHT22;5197;48.152;8.590;2023-07-31T12:44:11;23.60;1.00
10304;DHT22;5197;48.152;8.590;2023-07-31T12:46:38;23.60;1.00
10304;DHT22;5197;48.152;8.590;2023-07-31T12:49:05;23.70;1.00
10304;DHT22;5197;48.152;8.590;2023-07-31T12:51:32;23.50;1.00
10304;DHT22;5197;48.152;8.590;2023-07-31T12:53:59;23.90;1.00
10304;DHT22;5197;48.152;8.590;2023-07-31T12:56:26;23.60;1.00
10304;DHT22;5197;48.152;8.590;2023-07-31T12:58:52;23.70;1.00
10304;DHT22;5197;48.152;8.590;2023-07-31T13:01:19;23.80;1.00
10304;DHT22;5197;48.152;8.590;2023-07-31T13:03:46;24.00;1.00
10304;DHT22;5197;48.152;8.590;2023-07-31T13:06:14;24.10;1.00
10304;DHT22;5197;48.152;8.590;2023-07-31T13:08:40;24.20;1.00
10304;DHT22;5197;48.152;8.590;2023-07-31T13:11:07;24.30;1.00
10304;DHT22;5197;48.152;8.590;2023-07-31T13:13:34;24.50;1.00
10304;DHT22;5197;48.152;8.590;2023-07-31T13:16:01;24.60;1.00
10304;DHT22;5197;48.152;8.590;2023-07-31T13:18:28;24.80;1.00
10304;DHT22;5197;48.152;8.590;2023-07-31T13:20:55;24.80;1.00
10304;DHT22;5197;48.152;8.590;2023-07-31T13:23:22;24.70;1.00
10304;DHT22;5197;48.152;8.590;2023-07-31T13:25:49;24.80;1.00
10304;DHT22;5197;48.152;8.590;2023-07-31T13:28:15;25.00;1.00
10304;DHT22;5197;48.152;8.590;2023-07-31T13:30:42;25.20;1.00
10304;DHT22;5197;48.152;8.590;2023-07-31T13:33:09;25.20;1.00
10304;DHT22;5197;48.152;8.590;2023-07-31T13:35:56;24.70;1.00
10304;DHT22;5197;48.152;8.590;2023-07-31T13:38:23;24.40;1.00
10304;DHT22;5197;48.152;8.590;2023-07-31T13:40:50;24.30;1.00
10304;DHT22;5197;48.152;8.590;2023-07-31T13:43:16;24.30;1.00
10304;DHT22;5197;48.152;8.590;2023-07-31T13:45:43;24.60;1.00
10304;DHT22;5197;48.152;8.590;2023-07-31T13:48:10;25.20;1.00
10304;DHT22;5197;48.152;8.590;2023-07-31T13:50:37;24.90;1.00
10304;DHT22;5197;48.152;8.590;2023-07-31T13:53:04;25.00;1.00
10304;DHT22;5197;48.152;8.590;2023-07-31T13:55:31;24.90;1.00
10304;DHT22;5197;48.152;8.590;2023-07-31T13:57:58;25.00;1.00
10304;DHT22;5197;48.152;8.590;2023-07-31T14:00:24;25.00;1.00
10304;DHT22;5197;48.152;8.590;2023-07-31T14:02:51;24.70;1.00
10304;DHT22;5197;48.152;8.590;2023-07-31T14:05:18;24.40;1.00
10304;DHT22;5197;48.152;8.590;2023-07-31T14:07:46;24.40;1.00
10304;DHT22;5197;48.152;8.590;2023-07-31T14:10:13;24.00;1.00
10304;DHT22;5197;48.152;8.590;2023-07-31T14:12:39;23.70;1.00
10304;DHT22;5197;48.152;8.590;2023-07-31T14:15:09;23.70;1.00
10304;DHT22;5197;48.152;8.590;2023-07-31T14:17:36;23.80;1.00
10304;DHT22;5197;48.152;8.590;2023-07-31T14:20:04;23.90;1.00
10304;DHT22;5197;48.152;8.590;2023-07-31T14:22:32;24.00;1.00
10304;DHT22;5197;48.152;8.590;2023-07-31T14:25:01;24.10;1.00
10304;DHT22;5197;48.152;8.590;2023-07-31T14:27:28;24.30;1.00
10304;DHT22;5197;48.152;8.590;2023-07-31T14:29:55;24.30;1.00
10304;DHT22;5197;48.152;8.590;2023-07-31T14:32:22;24.30;1.00
10304;DHT22;5197;48.152;8.590;2023-07-31T14:34:52;24.30;1.00
10304;DHT22;5197;48.152;8.590;2023-07-31T14:37:19;24.40;1.00
10304;DHT22;5197;48.152;8.590;2023-07-31T14:39:45;24.00;1.00
10304;DHT22;5197;48.152;8.590;2023-07-31T14:42:12;23.90;1.00
10304;DHT22;5197;48.152;8.590;2023-07-31T14:44:39;24.10;1.00
10304;DHT22;5197;48.152;8.590;2023-07-31T14:47:06;24.40;1.00
10304;DHT22;5197;48.152;8.590;2023-07-31T14:49:33;23.80;1.00
10304;DHT22;5197;48.152;8.590;2023-07-31T14:51:59;23.80;1.00
10304;DHT22;5197;48.152;8.590;2023-07-31T14:54:26;23.90;1.00
10304;DHT22;5197;48.152;8.590;2023-07-31T14:56:53;24.30;1.00
10304;DHT22;5197;48.152;8.590;2023-07-31T14:59:20;24.80;1.00
10304;DHT22;5197;48.152;8.590;2023-07-31T15:01:46;23.70;1.00
10304;DHT22;5197;48.152;8.590;2023-07-31T15:04:13;24.30;1.00
10304;DHT22;5197;48.152;8.590;2023-07-31T15:06:40;23.60;1.00
10304;DHT22;5197;48.152;8.590;2023-07-31T15:09:08;23.70;1.00
10304;DHT22;5197;48.152;8.590;2023-07-31T15:11:35;23.80;1.00
10304;DHT22;5197;48.152;8.590;2023-07-31T15:14:02;23.90;1.00
10304;DHT22;5197;48.152;8.590;2023-07-31T15:16:29;24.00;1.00
10304;DHT22;5197;48.152;8.590;2023-07-31T15:18:58;23.70;1.00
10304;DHT22;5197;48.152;8.590;2023-07-31T15:21:25;23.70;1.00
10304;DHT22;5197;48.152;8.590;2023-07-31T15:23:52;23.80;1.00
10304;DHT22;5197;48.152;8.590;2023-07-31T15:26:19;23.80;1.00
10304;DHT22;5197;48.152;8.590;2023-07-31T15:28:55;23.80;1.00
10304;DHT22;5197;48.152;8.590;2023-07-31T15:31:22;23.70;1.00
10304;DHT22;5197;48.152;8.590;2023-07-31T15:33:49;23.70;1.00
10304;DHT22;5197;48.152;8.590;2023-07-31T15:36:16;23.80;1.00
10304;DHT22;5197;48.152;8.590;2023-07-31T15:38:44;23.70;1.00
10304;DHT22;5197;48.152;8.590;2023-07-31T15:41:11;24.00;1.00
10304;DHT22;5197;48.152;8.590;2023-07-31T15:43:38;23.50;1.00
10304;DHT22;5197;48.152;8.590;2023-07-31T15:46:04;23.50;1.00
10304;DHT22;5197;48.152;8.590;2023-07-31T15:48:31;23.60;1.00
10304;DHT22;5197;48.152;8.590;2023-07-31T15:50:58;23.60;1.00
10304;DHT22;5197;48.152;8.590;2023-07-31T15:53:25;23.60;1.00
10304;DHT22;5197;48.152;8.590;2023-07-31T15:55:51;23.40;1.00
10304;DHT22;5197;48.152;8.590;2023-07-31T15:58:18;23.70;1.00
10304;DHT22;5197;48.152;8.590;2023-07-31T16:00:45;23.50;1.00
10304;DHT22;5197;48.152;8.590;2023-07-31T16:03:12;23.30;1.00
10304;DHT22;5197;48.152;8.590;2023-07-31T16:05:39;23.10;1.00
10304;DHT22;5197;48.152;8.590;2023-07-31T16:08:07;23.10;1.00
10304;DHT22;5197;48.152;8.590;2023-07-31T16:10:34;23.10;1.00
10304;DHT22;5197;48.152;8.590;2023-07-31T16:13:01;23.20;1.00